Decoded Metar for VOCL (CALICUT in INDIA) (IATA:CCJ) | Meteo·Mobile Aviation Weather
aviador You're here:

VOCL Decoded Metar

CALICUT in INDIA
Report Time2019-10-22 06:30:00
UTC Time2019-10-22 06:40:58
Flight Rules mvfr MVFR
Wind360° at 04 kt
W.Decomp.*RWY 28: 0.6 kt HW 4.0 kt RCW
Visibility6000 m
Phenomena:N/A
Clouds:Scattered 012 Hf
Scattered 018 Hf
Broken 080 Hf
Expected CloudBase > 2,400 ft AGL from Temp-Dew spread
Ceiling8,000 ft
Temp30°C (ISA +16)
Dew Point24°C (70% RH)
Heat Index35.0°C
QNH1009 hPa
Density Alt2,664 ft
Elevation341 ft
Report Wrong Elevation
Raw Report
METAR VOCL 220630Z 36004KT 6000 SCT012 SCT018 BKN080 30/24 Q1009
NOSIG=####018000097####
SAIN90 VOHS 220630

Extra information for VOCL:More info

Metar Taf Metar & Taf Last 4 Metars F.Rules Stats Wind Profile Meteogram Temp Stats Airport Information Weather charts Add Link Nearby VenuesMetar ALERT Operation Metar Decoded Social comments